Welcome to Northern Hawkes Bay. New Zealand.
PWS Header
      nz Flag



Hit Counter


W3C Valid W3C Valid logo


    Wairoa

Select any of the Stations below to visit their websites.










Historic Data from Weather Underground
Select the location of interest below. Wairoa is the default. Please have patience, this Data is slow to load in.
Northern Hawkes Bay Historical Data
Daily Summary for May 9, 2017 Units:  English    Metric   Both
« Previous Day
Next Day »
Daily Weekly Monthly Yearly Custom
  High: Low: Average:
Temperature: 77.5 °F 41.9 °F 55.9 °F
Dew Point: 53.1 °F 41.5 °F 47.8 °F
Humidity: 99% 38% 78%
Wind Speed: 8.3mph 0mph 2.7mph
Wind Gust: 12.1mph - -
Wind- - WNW
Pressure: 30.3 in 30.2 in -
Precipitation: 0 in    
Historical Graphs
 
 
Tabular Data for May 9, 2017
Time Temperature Dew Point Pressure Wind Wind Speed Wind Gust Humidity Rainfall Rate (Hourly) solar
00:04 46.2 °F 45 °F 30.3 in NNW 3.1 mph 8.3 mph 95% 0 in 0 W/m2
00:09 46.2 °F 45 °F 30.3 in NNW 3.1 mph 8.3 mph 95% 0 in 0 W/m2
00:14 46.2 °F 45.1 °F 30.3 in NNW 3.8 mph 7.6 mph 96% 0 in 0 W/m2
00:19 46.4 °F 45 °F 30.3 in NNW 3.8 mph 7.6 mph 95% 0 in 0 W/m2
00:24 46.2 °F 45 °F 30.3 in NNW 6 mph 7.6 mph 95% 0 in 0 W/m2
00:29 46 °F 44.8 °F 30.3 in NNW 5.4 mph 9.8 mph 95% 0 in 0 W/m2
00:34 46 °F 44.8 °F 30.3 in NNW 3.8 mph 9.8 mph 95% 0 in 0 W/m2
00:40 45.9 °F 44.4 °F 30.3 in NNW 4.5 mph 9.2 mph 95% 0 in 0 W/m2
00:45 45.5 °F 44.2 °F 30.3 in NNW 6 mph 9.2 mph 95% 0 in 0 W/m2
00:50 45.5 °F 44.2 °F 30.3 in NNW 5.4 mph 9.2 mph 95% 0 in 0 W/m2
00:55 45.1 °F 43.9 °F 30.3 in NNW 3.1 mph 8.3 mph 95% 0 in 0 W/m2
01:00 45.1 °F 43.9 °F 30.3 in NNW 5.4 mph 8.3 mph 95% 0 in 0 W/m2
01:05 45 °F 43.5 °F 30.3 in NW 5.4 mph 8.3 mph 95% 0 in 0 W/m2
01:10 45 °F 43.9 °F 30.3 in NW 3.8 mph 8.3 mph 96% 0 in 0 W/m2
01:16 44.8 °F 43.7 °F 30.3 in NW 5.4 mph 9.2 mph 96% 0 in 0 W/m2
01:21 44.8 °F 43.7 °F 30.3 in NNW 6 mph 10.7 mph 96% 0 in 0 W/m2
01:26 45.3 °F 44.2 °F 30.3 in NNW 2.2 mph 10.7 mph 96% 0 in 0 W/m2
01:31 45 °F 43.9 °F 30.3 in NNW 4.5 mph 9.8 mph 96% 0 in 0 W/m2
01:36 45 °F 43.9 °F 30.3 in NNW 5.4 mph 10.7 mph 96% 0 in 0 W/m2
01:41 45 °F 43.9 °F 30.3 in NNW 3.8 mph 10.7 mph 96% 0 in 0 W/m2
01:46 46 °F 45.1 °F 30.3 in North 3.8 mph 8.3 mph 97% 0 in 0 W/m2
01:51 45 °F 43.9 °F 30.3 in North 3.1 mph 6.9 mph 96% 0 in 0 W/m2
01:56 45 °F 43.9 °F 30.3 in NNW 5.4 mph 6.9 mph 96% 0 in 0 W/m2
02:01 45 °F 43.9 °F 30.3 in NNW 6.9 mph 10.7 mph 96% 0 in 0 W/m2
02:06 46.2 °F 45.1 °F 30.3 in NNW 3.1 mph 10.7 mph 96% 0 in 0 W/m2
02:11 45.1 °F 43.9 °F 30.3 in NNW 3.1 mph 10.7 mph 95% 0 in 0 W/m2
02:16 45 °F 43.5 °F 30.3 in NW 6 mph 7.6 mph 95% 0 in 0 W/m2
02:21 45 °F 43.3 °F 30.3 in NW 3.1 mph 7.6 mph 94% 0 in 0 W/m2
02:26 45.1 °F 43.9 °F 30.3 in NNW 4.5 mph 8.3 mph 95% 0 in 0 W/m2
02:31 44.8 °F 43.2 °F 30.3 in NW 3.1 mph 9.2 mph 94% 0 in 0 W/m2
02:36 44.6 °F 43 °F 30.3 in NW 5.4 mph 9.2 mph 94% 0 in 0 W/m2
02:41 44.4 °F 43.2 °F 30.3 in NW 4.5 mph 7.6 mph 95% 0 in 0 W/m2
02:46 44.1 °F 43 °F 30.3 in NNW 3.8 mph 7.6 mph 96% 0 in 0 W/m2
03:05 44.2 °F 43.2 °F 30.3 in NNW 4.5 mph 8.3 mph 96% 0 in 0 W/m2
03:10 44.2 °F 43.2 °F 30.3 in NNW 3.8 mph 6.9 mph 96% 0 in 0 W/m2
03:15 43.9 °F 42.8 °F 30.3 in NNW 3.8 mph 6.9 mph 96% 0 in 0 W/m2
03:20 43.9 °F 42.8 °F 30.3 in NNW 2.2 mph 6.9 mph 96% 0 in 0 W/m2
03:25 43.7 °F 42.6 °F 30.3 in NNW 3.8 mph 6.9 mph 96% 0 in 0 W/m2
03:30 43.9 °F 42.8 °F 30.3 in NNW 0.7 mph 6 mph 96% 0 in 0 W/m2
03:48 43.7 °F 43 °F 30.3 in Calm     97% 0 in 0 W/m2
03:53 43.5 °F 42.6 °F 30.3 in Calm     97% 0 in 0 W/m2
03:58 44.4 °F 43.5 °F 30.3 in Calm     97% 0 in 0 W/m2
04:03 43.7 °F 43 °F 30.3 in NNW 0.7 mph 4.5 mph 97% 0 in 0 W/m2
04:08 43.7 °F 43 °F 30.3 in NNW 3.1 mph 5.4 mph 97% 0 in 0 W/m2
04:13 43.7 °F 43.2 °F 30.3 in NNW 3.1 mph 8.3 mph 98% 0 in 0 W/m2
04:18 43.5 °F 42.6 °F 30.3 in NNW 3.8 mph 8.3 mph 97% 0 in 0 W/m2
04:23 43.2 °F 42.4 °F 30.3 in NNW 3.8 mph 6 mph 97% 0 in 0 W/m2
04:28 43 °F 42.3 °F 30.3 in NW 4.5 mph 6.9 mph 97% 0 in 0 W/m2
04:33 42.8 °F 42.1 °F 30.3 in NW 3.8 mph 6.9 mph 97% 0 in 0 W/m2
04:38 43.5 °F 42.6 °F 30.3 in NNW 4.5 mph 6.9 mph 97% 0 in 0 W/m2
04:43 42.3 °F 41.7 °F 30.3 in NNW 2.2 mph 6 mph 98% 0 in 0 W/m2
04:49 42.3 °F 41.7 °F 30.3 in NNW 3.1 mph 6 mph 98% 0 in 0 W/m2
04:54 42.1 °F 41.5 °F 30.3 in NW 3.8 mph 6 mph 98% 0 in 0 W/m2
05:12 42.3 °F 42.1 °F 30.3 in NNW 1.6 mph 6 mph 99% 0 in 0 W/m2
05:17 42.3 °F 42.1 °F 30.3 in NNW 3.1 mph 5.4 mph 99% 0 in 0 W/m2
05:22 42.1 °F 41.7 °F 30.3 in NW 3.8 mph 5.4 mph 99% 0 in 0 W/m2
05:27 42.3 °F 42.1 °F 30.3 in NW 3.1 mph 5.4 mph 99% 0 in 0 W/m2
05:32 42.3 °F 42.1 °F 30.3 in NW 2.2 mph 6 mph 99% 0 in 0 W/m2
05:37 42.3 °F 42.1 °F 30.3 in NNW 1.6 mph 6 mph 99% 0 in 0 W/m2
05:42 42.3 °F 42.1 °F 30.3 in Calm   4.5 mph 99% 0 in 0 W/m2
05:47 42.1 °F 41.7 °F 30.3 in Calm   4.5 mph 99% 0 in 0 W/m2
05:52 41.9 °F 41.5 °F 30.3 in WNW 3.8 mph 4.5 mph 99% 0 in 0 W/m2
05:57 41.9 °F 41.5 °F 30.3 in NW 3.8 mph 5.4 mph 99% 0 in 0 W/m2
06:02 41.9 °F 41.5 °F 30.3 in NW 4.5 mph 6.9 mph 99% 0 in 0 W/m2
06:07 41.9 °F 41.5 °F 30.3 in Calm   6.9 mph 99% 0 in 0 W/m2
06:12 42.1 °F 41.7 °F 30.3 in Calm   5.4 mph 99% 0 in 0 W/m2
06:17 42.1 °F 41.7 °F 30.3 in NNW 3.1 mph 6 mph 99% 0 in 0 W/m2
06:22 42.3 °F 42.1 °F 30.3 in NW 6 mph 7.6 mph 99% 0 in 0 W/m2
06:27 42.6 °F 42.4 °F 30.3 in NNW 3.8 mph 9.8 mph 99% 0 in 0 W/m2
06:32 42.8 °F 42.3 °F 30.3 in NNW 5.4 mph 9.8 mph 98% 0 in 0 W/m2
06:37 43 °F 42.4 °F 30.3 in NW 3.1 mph 8.3 mph 98% 0 in 0 W/m2
06:42 43 °F 42.4 °F 30.3 in NNW 3.8 mph 8.3 mph 98% 0 in 0 W/m2
06:47 43.2 °F 42.6 °F 30.3 in NNW 4.5 mph 7.6 mph 98% 0 in 0 W/m2
06:52 43.2 °F 42.6 °F 30.3 in NNW 4.5 mph 7.6 mph 98% 0 in 0 W/m2
06:57 43.2 °F 42.6 °F 30.3 in NNW 3.1 mph 7.6 mph 98% 0 in 1 W/m2
07:02 43.3 °F 42.8 °F 30.3 in NW 4.5 mph 7.6 mph 98% 0 in 2 W/m2
07:07 43.5 °F 43 °F 30.3 in NNW 0.7 mph 9.2 mph 98% 0 in 5 W/m2
07:12 43.5 °F 43 °F 30.3 in NNW 3.1 mph 9.2 mph 98% 0 in 10 W/m2
07:17 43.7 °F 43.2 °F 30.3 in NNW 3.1 mph 7.6 mph 98% 0 in 13 W/m2
07:22 44.1 °F 43.5 °F 30.3 in Calm   7.6 mph 98% 0 in 31 W/m2
07:27 44.8 °F 44.1 °F 30.3 in NNW 0.7 mph 7.6 mph 97% 0 in 72 W/m2
07:32 45.5 °F 44.8 °F 30.3 in NNW 3.1 mph 6 mph 97% 0 in 49 W/m2
07:37 45.5 °F 44.4 °F 30.3 in North 4.5 mph 6 mph 96% 0 in 62 W/m2
07:42 45.3 °F 44.1 °F 30.3 in NNW 2.2 mph 6.9 mph 95% 0 in 44 W/m2
07:47 45.1 °F 43.5 °F 30.3 in NW 2.2 mph 6.9 mph 94% 0 in 42 W/m2
07:52 45.3 °F 43.3 °F 30.3 in NNW 3.1 mph 6.9 mph 93% 0 in 139 W/m2
07:57 46 °F 44.1 °F 30.3 in NNW 6 mph 11.4 mph 93% 0 in 96 W/m2
08:01 46.4 °F 44.2 °F 30.3 in NNW 5.4 mph 11.4 mph 92% 0 in 117 W/m2
08:06 47.1 °F 44.6 °F 30.3 in NNW 3.8 mph 10.7 mph 91% 0 in 177 W/m2
08:11 47.7 °F 44.6 °F 30.3 in NNW 3.8 mph 9.8 mph 89% 0 in 188 W/m2
08:16 48 °F 44.6 °F 30.3 in NNW 4.5 mph 9.8 mph 88% 0 in 192 W/m2
08:21 48.6 °F 45 °F 30.3 in NW 6.9 mph 9.2 mph 87% 0 in 200 W/m2
08:26 48.9 °F 45 °F 30.3 in NW 5.4 mph 11.4 mph 86% 0 in 210 W/m2
08:31 49.5 °F 45.5 °F 30.3 in NW 4.5 mph 11.4 mph 86% 0 in 219 W/m2
08:36 49.8 °F 45.9 °F 30.3 in NW 3.8 mph 9.8 mph 86% 0 in 231 W/m2
08:41 50.4 °F 45.7 °F 30.3 in NNW 4.5 mph 7.6 mph 84% 0 in 242 W/m2
08:46 50.9 °F 46.2 °F 30.3 in NNW 2.2 mph 11.4 mph 84% 0 in 255 W/m2
08:51 51.4 °F 46.6 °F 30.3 in NNW 8.3 mph 11.4 mph 83% 0 in 268 W/m2
08:56 52 °F 46.8 °F 30.3 in NNW 6 mph 10.7 mph 82% 0 in 277 W/m2
08:57 52 °F 46.8 °F 30.3 in NNW 5.4 mph 10.7 mph 82% 0 in 280 W/m2
09:02 52.5 °F 47.1 °F 30.3 in Calm   10.7 mph 82% 0 in 292 W/m2
09:07 53.2 °F 47.1 °F 30.3 in NNW 3.1 mph 9.2 mph 80% 0 in 301 W/m2
09:12 54.1 °F 47.5 °F 30.3 in North 6.9 mph 9.8 mph 78% 0 in 308 W/m2
09:17 54.1 °F 46.8 °F 30.3 in NNW 5.4 mph 12.1 mph 76% 0 in 310 W/m2
09:22 54.3 °F 47.3 °F 30.3 in NNW 3.1 mph 12.1 mph 77% 0 in 312 W/m2
09:27 54.9 °F 47.5 °F 30.3 in NNW 3.8 mph 9.2 mph 76% 0 in 274 W/m2
09:32 55.4 °F 48 °F 30.3 in North 2.2 mph 9.8 mph 76% 0 in 141 W/m2
09:37 56.1 °F 48.7 °F 30.3 in North 4.5 mph 9.8 mph 76% 0 in 77 W/m2
09:42 56.5 °F 48.7 °F 30.3 in NNW 4.5 mph 9.2 mph 75% 0 in 67 W/m2
09:47 56.8 °F 48.9 °F 30.3 in NNW 4.5 mph 9.2 mph 75% 0 in 58 W/m2
09:52 57.9 °F 49.6 °F 30.3 in Calm   8.3 mph 74% 0 in 55 W/m2
09:57 59.2 °F 50.5 °F 30.3 in NW 4.5 mph 6.9 mph 73% 0 in 53 W/m2
10:02 59.7 °F 50.7 °F 30.3 in NW 1.6 mph 7.6 mph 72% 0 in 53 W/m2
10:07 60.4 °F 51.1 °F 30.3 in NNW 4.5 mph 7.6 mph 71% 0 in 54 W/m2
10:12 61 °F 51.4 °F 30.3 in North 3.1 mph 6.9 mph 71% 0 in 86 W/m2
10:17 62.4 °F 51.6 °F 30.3 in NNW 3.1 mph 6.9 mph 68% 0 in 207 W/m2
10:22 62.8 °F 50.4 °F 30.3 in North 0.7 mph 8.3 mph 64% 0 in 324 W/m2
10:27 63.1 °F 50.7 °F 30.3 in North 4.5 mph 9.2 mph 64% 0 in 355 W/m2
10:32 63 °F 50.5 °F 30.3 in North 3.1 mph 9.2 mph 64% 0 in 366 W/m2
10:37 63.1 °F 50.7 °F 30.3 in NNW 4.5 mph 9.2 mph 64% 0 in 372 W/m2
10:42 63.1 °F 50.7 °F 30.3 in NNW 2.2 mph 8.3 mph 64% 0 in 377 W/m2
10:47 63.5 °F 50.7 °F 30.3 in NNW 4.5 mph 8.3 mph 63% 0 in 380 W/m2
10:52 63.7 °F 50.9 °F 30.3 in North 3.8 mph 8.3 mph 63% 0 in 382 W/m2
10:57 63.9 °F 51.1 °F 30.3 in North 5.4 mph 8.3 mph 63% 0 in 384 W/m2
11:02 64.6 °F 52.2 °F 30.3 in North 4.5 mph 8.3 mph 64% 0 in 385 W/m2
11:07 64.9 °F 51.6 °F 30.3 in North 3.1 mph 7.6 mph 62% 0 in 386 W/m2
11:12 65.8 °F 52.9 °F 30.3 in North 3.1 mph 6 mph 63% 0 in 387 W/m2
11:17 66 °F 52.5 °F 30.3 in NNW 3.8 mph 7.6 mph 62% 0 in 389 W/m2
11:22 66.4 °F 51.6 °F 30.3 in NNW 2.2 mph 7.6 mph 59% 0 in 388 W/m2
11:27 68 °F 52.7 °F 30.3 in North 3.1 mph 7.6 mph 58% 0 in 391 W/m2
11:32 68 °F 51.3 °F 30.3 in NNW 3.8 mph 8.3 mph 55% 0 in 390 W/m2
11:37 67.8 °F 50.5 °F 30.3 in NNW 3.8 mph 8.3 mph 54% 0 in 389 W/m2
11:42 68 °F 50.4 °F 30.3 in NW 5.4 mph 8.3 mph 53% 0 in 389 W/m2
11:47 68.9 °F 51.1 °F 30.3 in NW 4.5 mph 8.3 mph 53% 0 in 389 W/m2
11:52 68.9 °F 49.5 °F 30.3 in NW 6 mph 9.2 mph 50% 0 in 388 W/m2
11:57 69.1 °F 49.1 °F 30.3 in NNW 3.8 mph 9.2 mph 49% 0 in 387 W/m2
12:02 69.1 °F 49.1 °F 30.3 in NNW 4.5 mph 9.2 mph 49% 0 in 385 W/m2
12:07 69.3 °F 49.8 °F 30.3 in NW 6 mph 9.2 mph 50% 0 in 383 W/m2
12:12 69.6 °F 49.6 °F 30.3 in NW 4.5 mph 9.2 mph 49% 0 in 380 W/m2
12:17 70 °F 48.4 °F 30.3 in NW 3.1 mph 7.6 mph 46% 0 in 379 W/m2
12:22 70.5 °F 48.7 °F 30.3 in WNW 1.6 mph 6 mph 46% 0 in 378 W/m2
12:27 71.4 °F 48.4 °F 30.3 in NW 2.2 mph 6 mph 44% 0 in 375 W/m2
12:32 71.1 °F 46.2 °F 30.3 in WNW 3.1 mph 7.6 mph 41% 0 in 371 W/m2
12:37 71.6 °F 47.3 °F 30.3 in WSW 3.8 mph 7.6 mph 42% 0 in 367 W/m2
12:42 71.8 °F 48 °F 30.3 in WSW 6 mph 10.7 mph 43% 0 in 361 W/m2
12:52 70.9 °F 49.6 °F 30.3 in South 4.5 mph 9.8 mph 47% 0 in 342 W/m2
12:57 70.7 °F 48.9 °F 30.3 in South 4.5 mph 8.3 mph 46% 0 in 331 W/m2
13:02 70 °F 48.9 °F 30.3 in South 3.8 mph 8.3 mph 47% 0 in 309 W/m2
13:07 70.2 °F 48.9 °F 30.3 in South 5.4 mph 7.6 mph 47% 0 in 291 W/m2
13:12 70.2 °F 50.2 °F 30.3 in South 3.8 mph 7.6 mph 49% 0 in 260 W/m2
13:17 70.2 °F 49.6 °F 30.3 in South 5.4 mph 7.6 mph 48% 0 in 219 W/m2
13:22 69.4 °F 50 °F 30.3 in South 3.8 mph 7.6 mph 50% 0 in 186 W/m2
13:27 70.9 °F 50.7 °F 30.3 in South 2.2 mph 6.9 mph 49% 0 in 149 W/m2
13:32 72 °F 50.2 °F 30.3 in SSE 4.5 mph 6 mph 46% 0 in 117 W/m2
13:37 72.5 °F 50 °F 30.3 in SE 1.6 mph 6 mph 45% 0 in 86 W/m2
13:42 73.4 °F 50.2 °F 30.3 in SE 1.6 mph 6 mph 44% 0 in 81 W/m2
13:47 73.9 °F 50.2 °F 30.3 in SE 2.2 mph 5.4 mph 43% 0 in 90 W/m2
13:52 73.9 °F 48.7 °F 30.3 in SE 2.2 mph 5.4 mph 41% 0 in 95 W/m2
13:57 74.8 °F 50.2 °F 30.3 in SE 2.2 mph 4.5 mph 42% 0 in 96 W/m2
14:02 74.7 °F 50.2 °F 30.3 in South 3.1 mph 5.4 mph 42% 0 in 93 W/m2
14:07 73.9 °F 48.7 °F 30.3 in South 2.2 mph 5.4 mph 41% 0 in 88 W/m2
14:12 72.7 °F 49.5 °F 30.3 in SSE 2.2 mph 6 mph 44% 0 in 84 W/m2
14:17 73 °F 52.2 °F 30.3 in SSE 1.6 mph 6 mph 48% 0 in 80 W/m2
14:22 73.4 °F 52.5 °F 30.3 in Calm   6 mph 48% 0 in 78 W/m2
14:27 74.3 °F 52.2 °F 30.3 in SE 1.6 mph 5.4 mph 46% 0 in 77 W/m2
14:32 74.8 °F 52.2 °F 30.3 in SE 1.6 mph 4.5 mph 45% 0 in 81 W/m2
14:37 74.3 °F 51.6 °F 30.3 in SE 2.2 mph 5.4 mph 45% 0 in 95 W/m2
14:42 74.5 °F 50.5 °F 30.3 in SE 3.1 mph 5.4 mph 43% 0 in 93 W/m2
14:47 74.7 °F 50.2 °F 30.3 in SE 3.1 mph 5.4 mph 42% 0 in 95 W/m2
14:52 74.3 °F 49.8 °F 30.3 in Calm   4.5 mph 42% 0 in 140 W/m2
14:57 75 °F 49.8 °F 30.3 in SSE 2.2 mph 4.5 mph 41% 0 in 179 W/m2
15:02 75.7 °F 50.4 °F 30.3 in SE 0.7 mph 3.8 mph 41% 0 in 197 W/m2
15:07 75.6 °F 51.4 °F 30.3 in SE 1.6 mph 4.5 mph 43% 0 in 202 W/m2
15:12 75.7 °F 51.6 °F 30.3 in ESE 0.7 mph 4.5 mph 43% 0 in 196 W/m2
15:17 75.4 °F 50.7 °F 30.3 in ESE 2.2 mph 3.8 mph 42% 0 in 189 W/m2
15:22 75.2 °F 51.8 °F 30.3 in ESE 0.7 mph 3.1 mph 44% 0 in 180 W/m2
15:27 74.7 °F 52 °F 30.3 in Calm   4.5 mph 45% 0 in 169 W/m2
15:32 76.6 °F 52.5 °F 30.3 in Calm   4.5 mph 43% 0 in 159 W/m2
15:37 77.4 °F 52 °F 30.3 in Calm   2.2 mph 41% 0 in 147 W/m2
15:42 77.5 °F 50 °F 30.3 in East 1.6 mph 3.1 mph 38% 0 in 133 W/m2
15:47 77.2 °F 51.6 °F 30.3 in Calm   3.1 mph 41% 0 in 120 W/m2
15:52 75.7 °F 49.6 °F 30.3 in East 4.5 mph 6 mph 40% 0 in 104 W/m2
15:57 73.8 °F 51.1 °F 30.3 in East 1.6 mph 6 mph 45% 0 in 89 W/m2
16:02 73.6 °F 51.1 °F 30.3 in ENE 1.6 mph 6 mph 45% 0 in 70 W/m2
16:07 73.8 °F 51.1 °F 30.3 in Calm   3.8 mph 45% 0 in 60 W/m2
16:12 75.2 °F 51.8 °F 30.3 in Calm   3.8 mph 44% 0 in 52 W/m2
16:17 74.3 °F 52.9 °F 30.3 in Calm   0.7 mph 47% 0 in 47 W/m2
16:22 74.5 °F 53.1 °F 30.3 in Calm   1.6 mph 47% 0 in 46 W/m2
16:27 72.9 °F 51.4 °F 30.2 in NE 0.7 mph 3.8 mph 47% 0 in 47 W/m2
16:32 72 °F 51.3 °F 30.2 in NE 1.6 mph 3.8 mph 48% 0 in 47 W/m2
16:37 71.2 °F 51.6 °F 30.2 in Calm   3.1 mph 50% 0 in 46 W/m2
16:42 71.1 °F 52 °F 30.2 in Calm   2.2 mph 51% 0 in 40 W/m2
16:47 70.7 °F 52.2 °F 30.2 in Calm   0.7 mph 52% 0 in 32 W/m2
16:52 69.4 °F 51.6 °F 30.2 in Calm     53% 0 in 17 W/m2
16:57 68.2 °F 50.9 °F 30.3 in Calm     54% 0 in 13 W/m2
17:02 66.4 °F 50.7 °F 30.3 in Calm     57% 0 in 8 W/m2
17:07 64 °F 50.7 °F 30.3 in Calm     62% 0 in 4 W/m2
17:24 60.4 °F 51.4 °F 30.3 in Calm   2.2 mph 72% 0 in 0 W/m2
17:29 60.1 °F 51.4 °F 30.3 in Calm   2.2 mph 73% 0 in 0 W/m2
17:34 59.7 °F 51.1 °F 30.3 in North 0.7 mph 1.6 mph 73% 0 in 0 W/m2
17:39 59.4 °F 51.1 °F 30.3 in Calm   1.6 mph 74% 0 in 0 W/m2
17:44 59 °F 51.1 °F 30.3 in Calm     75% 0 in 0 W/m2
17:49 58.3 °F 51.1 °F 30.3 in Calm     77% 0 in 0 W/m2
17:54 57.9 °F 51.1 °F 30.3 in NNW 1.6 mph 3.1 mph 78% 0 in 0 W/m2
17:59 57.2 °F 50.7 °F 30.3 in Calm   3.1 mph 79% 0 in 0 W/m2
18:04 56.8 °F 51.1 °F 30.3 in Calm   3.1 mph 81% 0 in 0 W/m2
18:09 56.3 °F 50.9 °F 30.3 in NNW 0.7 mph 2.2 mph 82% 0 in 0 W/m2
18:14 56.1 °F 51.4 °F 30.3 in Calm   2.2 mph 84% 0 in 0 W/m2
18:19 56.1 °F 51.6 °F 30.3 in Calm   2.2 mph 85% 0 in 0 W/m2
18:24 56.1 °F 52 °F 30.3 in Calm     86% 0 in 0 W/m2
18:29 55.8 °F 51.6 °F 30.3 in Calm     86% 0 in 0 W/m2
18:34 55.8 °F 51.6 °F 30.3 in Calm     86% 0 in 0 W/m2
18:40 55.6 °F 51.4 °F 30.3 in Calm   2.2 mph 86% 0 in 0 W/m2
18:45 55.4 °F 51.3 °F 30.3 in Calm   2.2 mph 86% 0 in 0 W/m2
18:50 55.2 °F 51.1 °F 30.3 in Calm     86% 0 in 0 W/m2
18:55 54.9 °F 50.7 °F 30.3 in Calm     86% 0 in 0 W/m2
19:00 54.7 °F 50.5 °F 30.3 in Calm     86% 0 in 0 W/m2
19:05 54.5 °F 50.7 °F 30.3 in Calm     87% 0 in 0 W/m2
19:10 54.5 °F 50.7 °F 30.3 in Calm     87% 0 in 0 W/m2
19:15 54.3 °F 50.5 °F 30.3 in Calm     87% 0 in 0 W/m2
19:20 54.1 °F 50.4 °F 30.3 in NW 3.1 mph 4.5 mph 87% 0 in 0 W/m2
19:25 54 °F 50.5 °F 30.3 in NW 3.8 mph 4.5 mph 88% 0 in 0 W/m2
19:30 54.1 °F 50.7 °F 30.3 in NW 3.1 mph 5.4 mph 88% 0 in 0 W/m2
19:35 54.3 °F 50.5 °F 30.3 in NW 3.1 mph 6.9 mph 87% 0 in 0 W/m2
19:40 54.9 °F 51.1 °F 30.3 in NNW 3.8 mph 6.9 mph 87% 0 in 0 W/m2
19:45 55.4 °F 51.3 °F 30.3 in NNW 3.1 mph 7.6 mph 86% 0 in 0 W/m2
19:50 55.8 °F 51.3 °F 30.3 in North 0.7 mph 7.6 mph 85% 0 in 0 W/m2
19:55 55.9 °F 51.4 °F 30.3 in Calm   7.6 mph 85% 0 in 0 W/m2
20:00 55.8 °F 51.1 °F 30.3 in North 3.1 mph 4.5 mph 84% 0 in 0 W/m2
20:05 55.9 °F 51.3 °F 30.3 in NNW 2.2 mph 4.5 mph 84% 0 in 0 W/m2
20:10 55.8 °F 51.1 °F 30.3 in NNW 0.7 mph 4.5 mph 84% 0 in 0 W/m2
20:15 55.9 °F 51.3 °F 30.3 in Calm   4.5 mph 84% 0 in 0 W/m2
20:20 55.8 °F 50.7 °F 30.3 in Calm   4.5 mph 83% 0 in 0 W/m2
20:25 55.2 °F 50.2 °F 30.3 in Calm   1.6 mph 83% 0 in 0 W/m2
20:30 54.9 °F 49.8 °F 30.3 in Calm   5.4 mph 83% 0 in 0 W/m2
20:35 54.5 °F 49.8 °F 30.3 in Calm   5.4 mph 84% 0 in 0 W/m2
20:40 54.5 °F 50.2 °F 30.3 in Calm     85% 0 in 0 W/m2
20:41 54.5 °F 50.2 °F 30.3 in Calm     85% 0 in 0 W/m2
20:46 54.3 °F 49.8 °F 30.3 in Calm     85% 0 in 0 W/m2
20:51 53.8 °F 49.5 °F 30.3 in Calm     85% 0 in 0 W/m2
20:56 53.6 °F 49.3 °F 30.3 in Calm     85% 0 in 0 W/m2
21:01 53.2 °F 49.5 °F 30.3 in Calm   2.2 mph 87% 0 in 0 W/m2
21:06 52.9 °F 49.5 °F 30.3 in NW 2.2 mph 3.8 mph 88% 0 in 0 W/m2
21:11 52.7 °F 49.6 °F 30.3 in Calm   3.8 mph 89% 0 in 0 W/m2
21:16 52.7 °F 49.6 °F 30.3 in Calm   3.8 mph 89% 0 in 0 W/m2
21:21 52.7 °F 49.8 °F 30.3 in Calm     90% 0 in 0 W/m2
21:26 52.7 °F 49.8 °F 30.3 in Calm     90% 0 in 0 W/m2
21:31 52.9 °F 50 °F 30.3 in Calm     90% 0 in 0 W/m2
21:36 53.1 °F 50.5 °F 30.3 in NNW 2.2 mph 5.4 mph 91% 0 in 0 W/m2
21:41 53.2 °F 50.4 °F 30.3 in NNW 3.1 mph 6.9 mph 90% 0 in 0 W/m2
21:46 53.4 °F 50.5 °F 30.3 in NNW 3.1 mph 6.9 mph 90% 0 in 0 W/m2
21:51 53.4 °F 50.4 °F 30.3 in NNW 0.7 mph 8.3 mph 89% 0 in 0 W/m2
21:56 53.4 °F 50.4 °F 30.3 in NNW 2.2 mph 8.3 mph 89% 0 in 0 W/m2
22:01 53.4 °F 50.4 °F 30.3 in North 3.1 mph 6.9 mph 89% 0 in 0 W/m2
22:06 53.6 °F 50.2 °F 30.3 in NNW 4.5 mph 7.6 mph 88% 0 in 0 W/m2
22:11 53.6 °F 49.8 °F 30.3 in NNW 3.8 mph 7.6 mph 87% 0 in 0 W/m2
22:16 53.4 °F 50 °F 30.3 in NNW 1.6 mph 7.6 mph 88% 0 in 0 W/m2
22:21 53.4 °F 50 °F 30.3 in NNW 4.5 mph 8.3 mph 88% 0 in 0 W/m2
22:26 53.8 °F 50 °F 30.3 in NNW 4.5 mph 8.3 mph 87% 0 in 0 W/m2
22:31 54 °F 49.8 °F 30.3 in NNW 4.5 mph 8.3 mph 86% 0 in 0 W/m2
22:36 53.8 °F 49.6 °F 30.3 in NNW 6.9 mph 9.2 mph 86% 0 in 0 W/m2
22:52 53.2 °F 49.8 °F 30.3 in North 3.8 mph 8.3 mph 88% 0 in 0 W/m2
22:57 53.1 °F 49.6 °F 30.3 in NNW 4.5 mph 8.3 mph 88% 0 in 0 W/m2
23:02 52.7 °F 49.3 °F 30.3 in NNW 5.4 mph 9.2 mph 88% 0 in 0 W/m2
23:03 52.7 °F 49.3 °F 30.3 in NNW 5.4 mph 9.2 mph 88% 0 in 0 W/m2
23:08 52.7 °F 49.6 °F 30.3 in NNW 0.7 mph 9.2 mph 89% 0 in 0 W/m2
23:13 52.5 °F 49.5 °F 30.3 in NNW 3.8 mph 9.2 mph 89% 0 in 0 W/m2
23:18 52.3 °F 49.3 °F 30.3 in North 4.5 mph 6 mph 89% 0 in 0 W/m2
23:23 52.2 °F 48.9 °F 30.3 in NNW 3.8 mph 6.9 mph 89% 0 in 0 W/m2
23:28 52 °F 49.1 °F 30.3 in NNW 3.1 mph 6.9 mph 90% 0 in 0 W/m2
23:33 52 °F 49.1 °F 30.3 in NNW 1.6 mph 6.9 mph 90% 0 in 0 W/m2
23:38 52 °F 49.1 °F 30.3 in NNW 1.6 mph 6.9 mph 90% 0 in 0 W/m2
23:43 51.6 °F 49.1 °F 30.3 in NW 3.8 mph 6.9 mph 91% 0 in 0 W/m2
23:48 51.3 °F 48.7 °F 30.3 in NNW 1.6 mph 6.9 mph 91% 0 in 0 W/m2
23:53 50.9 °F 48.7 °F 30.3 in Calm   5.4 mph 92% 0 in 0 W/m2
23:58 50.7 °F 48.6 °F 30.3 in Calm   4.5 mph 92% 0 in 0 W/m2
Northern Hawkes Bay. New Zealand Historic Data
Compliments of Weather Underground - 2.25 mb